createdAt,value
2019-03-21T00:00:12.668Z,10.33
2019-03-21T00:02:46.491Z,10.31
2019-03-21T00:05:18.818Z,10.23
2019-03-21T00:07:51.024Z,10.18
2019-03-21T00:10:55.046Z,10.11
2019-03-21T00:13:27.290Z,10.08
2019-03-21T00:16:01.826Z,10.14
2019-03-21T00:18:34.032Z,10.16
2019-03-21T00:21:06.434Z,10.02
2019-03-21T00:23:38.374Z,10.02
2019-03-21T00:26:10.502Z,10.12
2019-03-21T00:28:43.838Z,10.10
2019-03-21T00:31:16.126Z,10.17
2019-03-21T00:33:48.641Z,10.03
2019-03-21T00:36:20.601Z,10.02
2019-03-21T00:38:52.859Z,9.97
2019-03-21T00:41:24.746Z,10.08
2019-03-21T00:43:56.696Z,10.10
2019-03-21T00:46:28.854Z,9.97
2019-03-21T00:49:01.023Z,9.92
2019-03-21T00:51:33.088Z,9.84
2019-03-21T00:54:05.261Z,9.77
2019-03-21T00:56:37.266Z,9.91
2019-03-21T00:59:09.281Z,9.82
2019-03-21T01:01:41.499Z,9.80
2019-03-21T01:04:13.354Z,9.82
2019-03-21T01:06:45.571Z,9.92
2019-03-21T01:09:17.661Z,9.80
2019-03-21T01:11:49.853Z,9.86
2019-03-21T01:14:29.839Z,9.82
2019-03-21T01:16:55.412Z,9.86
2019-03-21T01:19:27.374Z,9.88
2019-03-21T01:21:59.320Z,9.88
2019-03-21T01:24:31.239Z,9.85
2019-03-21T01:27:03.364Z,9.88
2019-03-21T01:29:35.197Z,9.83
2019-03-21T01:32:07.087Z,9.75
2019-03-21T01:34:39.237Z,9.65
2019-03-21T01:37:11.518Z,9.58
2019-03-21T01:39:43.735Z,9.49
2019-03-21T01:42:15.832Z,9.16
2019-03-21T01:44:47.930Z,9.01
2019-03-21T01:47:20.374Z,8.89
2019-03-21T01:49:52.283Z,8.89
2019-03-21T01:52:24.239Z,8.81
2019-03-21T01:54:56.326Z,8.68
2019-03-21T01:57:28.522Z,8.54
2019-03-21T02:00:00.745Z,8.33
2019-03-21T02:02:34.042Z,8.25
2019-03-21T02:05:06.421Z,8.22
2019-03-21T02:07:38.625Z,8.21
2019-03-21T02:10:13.263Z,8.26
2019-03-21T02:12:45.517Z,8.10
2019-03-21T02:15:17.845Z,8.05
2019-03-21T02:17:50.068Z,7.91
2019-03-21T02:20:23.134Z,7.83
2019-03-21T02:22:55.194Z,7.75
2019-03-21T02:25:29.023Z,7.74
2019-03-21T02:28:01.297Z,7.78
2019-03-21T02:30:35.133Z,7.72
2019-03-21T02:33:22.449Z,7.72
2019-03-21T02:35:54.618Z,7.70
2019-03-21T02:38:26.647Z,7.80
2019-03-21T02:40:59.107Z,7.81
2019-03-21T02:43:31.401Z,7.92
2019-03-21T02:46:03.284Z,7.90
2019-03-21T02:48:35.246Z,7.93
2019-03-21T02:51:07.626Z,8.04
2019-03-21T02:53:39.844Z,8.14
2019-03-21T02:56:13.548Z,8.19
2019-03-21T02:58:45.423Z,8.19
2019-03-21T03:01:17.237Z,8.27
2019-03-21T03:03:50.199Z,8.30
2019-03-21T03:06:22.165Z,8.31
2019-03-21T03:08:54.387Z,8.27
2019-03-21T03:11:26.904Z,8.11
2019-03-21T03:13:58.918Z,8.13
2019-03-21T03:16:31.101Z,8.14
2019-03-21T03:19:03.262Z,8.22
2019-03-21T03:21:35.020Z,8.24
2019-03-21T03:24:07.904Z,8.36
2019-03-21T03:26:39.803Z,8.36
2019-03-21T03:29:11.732Z,8.25
2019-03-21T03:31:43.509Z,8.24
2019-03-21T03:34:15.693Z,8.19
2019-03-21T03:36:47.906Z,8.15
2019-03-21T03:39:20.108Z,8.33
2019-03-21T03:41:52.162Z,8.28
2019-03-21T03:44:24.111Z,8.31
2019-03-21T03:46:56.063Z,8.25
2019-03-21T03:49:28.349Z,8.35
2019-03-21T03:52:00.508Z,8.39
2019-03-21T03:54:32.585Z,8.35
2019-03-21T03:57:04.374Z,8.37
2019-03-21T03:59:36.484Z,8.40
2019-03-21T04:02:08.439Z,8.34
2019-03-21T04:04:40.750Z,8.44
2019-03-21T04:07:12.755Z,8.44
2019-03-21T04:09:44.782Z,8.42
2019-03-21T04:12:16.950Z,8.36
2019-03-21T04:14:48.894Z,8.29
2019-03-21T04:17:20.726Z,8.33
2019-03-21T04:19:52.748Z,8.33
2019-03-21T04:22:24.826Z,8.21
2019-03-21T04:24:56.857Z,8.18
2019-03-21T04:27:28.994Z,8.19
2019-03-21T04:30:00.871Z,8.26
2019-03-21T04:32:33.059Z,8.29
2019-03-21T04:35:04.939Z,8.25
2019-03-21T04:37:36.709Z,8.12
2019-03-21T04:40:09.212Z,8.14
2019-03-21T04:42:41.452Z,8.16
2019-03-21T04:45:16.572Z,8.08
2019-03-21T04:47:48.622Z,8.01
2019-03-21T04:50:23.232Z,8.09
2019-03-21T04:52:55.406Z,8.12
2019-03-21T04:55:27.649Z,8.14
2019-03-21T04:57:59.746Z,8.12
2019-03-21T05:00:32.830Z,8.17
2019-03-21T05:03:05.624Z,8.04
2019-03-21T05:05:37.467Z,8.05
2019-03-21T05:08:09.433Z,8.15
2019-03-21T05:10:41.411Z,8.18
2019-03-21T05:13:13.640Z,7.99
2019-03-21T05:15:45.791Z,8.03
2019-03-21T05:18:29.900Z,8.03
2019-03-21T05:21:03.017Z,8.11
2019-03-21T05:23:34.863Z,8.02
2019-03-21T05:26:06.750Z,8.06
2019-03-21T05:28:38.617Z,8.17
2019-03-21T05:31:15.767Z,8.21
2019-03-21T05:33:47.595Z,8.36
2019-03-21T05:36:19.766Z,8.27
2019-03-21T05:38:51.722Z,8.29
2019-03-21T05:41:23.841Z,8.26
2019-03-21T05:44:02.481Z,8.35
2019-03-21T05:46:34.683Z,8.35
2019-03-21T05:49:06.682Z,8.38
2019-03-21T05:51:38.471Z,8.41
2019-03-21T05:54:10.630Z,8.53
2019-03-21T05:56:42.455Z,8.63
2019-03-21T05:59:14.274Z,8.71
2019-03-21T06:01:47.028Z,8.76
2019-03-21T06:04:18.881Z,8.82
2019-03-21T06:07:30.873Z,8.79
2019-03-21T06:10:02.845Z,8.56
2019-03-21T06:12:42.633Z,8.65
2019-03-21T06:15:15.867Z,8.73
2019-03-21T06:17:52.992Z,8.80
2019-03-21T06:21:05.117Z,8.97
2019-03-21T06:23:57.257Z,9.15
2019-03-21T06:26:50.431Z,9.24
2019-03-21T06:29:22.372Z,9.28
2019-03-21T06:31:54.334Z,9.35
2019-03-21T06:34:26.436Z,9.43
2019-03-21T06:36:58.247Z,9.52
2019-03-21T06:39:30.333Z,9.60
2019-03-21T06:42:02.375Z,9.66
2019-03-21T06:44:34.311Z,9.70
2019-03-21T06:47:06.258Z,9.94
2019-03-21T06:49:38.020Z,9.98
2019-03-21T06:52:09.874Z,9.94
2019-03-21T06:54:42.076Z,10.14
2019-03-21T06:57:14.114Z,10.25
2019-03-21T06:59:46.370Z,10.25
2019-03-21T07:02:18.323Z,10.34
2019-03-21T07:04:50.377Z,10.32
2019-03-21T07:07:24.121Z,10.42
2019-03-21T07:09:56.947Z,10.42
2019-03-21T07:12:28.927Z,10.15
2019-03-21T07:15:01.177Z,10.17
2019-03-21T07:17:33.430Z,10.37
2019-03-21T07:20:06.199Z,10.26
2019-03-21T07:22:38.598Z,10.21
2019-03-21T07:25:11.384Z,10.18
2019-03-21T07:27:43.599Z,10.22
2019-03-21T07:30:15.869Z,10.32
2019-03-21T07:32:47.948Z,10.37
2019-03-21T07:35:20.335Z,10.38
2019-03-21T07:37:52.239Z,10.44
2019-03-21T07:40:24.676Z,10.41
2019-03-21T07:42:56.787Z,10.38
2019-03-21T07:45:29.019Z,10.48
2019-03-21T07:48:01.256Z,10.36
2019-03-21T07:50:33.628Z,10.39
2019-03-21T07:53:05.842Z,10.36
2019-03-21T07:55:38.064Z,10.41
2019-03-21T07:58:10.049Z,10.33
2019-03-21T08:00:42.709Z,10.24
2019-03-21T08:03:14.898Z,10.21
2019-03-21T08:05:46.975Z,10.31
2019-03-21T08:08:18.858Z,10.28
2019-03-21T08:10:50.800Z,10.21
2019-03-21T08:13:22.943Z,10.22
2019-03-21T08:15:55.159Z,10.27
2019-03-21T08:18:26.906Z,10.36
2019-03-21T08:21:00.295Z,10.31
2019-03-21T08:23:32.296Z,10.31
2019-03-21T08:26:04.531Z,10.27
2019-03-21T08:28:36.595Z,10.27
2019-03-21T08:31:33.185Z,10.35
2019-03-21T08:34:05.590Z,10.36
2019-03-21T08:36:37.678Z,10.43
2019-03-21T08:39:10.398Z,10.51
2019-03-21T08:41:42.616Z,10.58
2019-03-21T08:44:14.456Z,10.59
2019-03-21T08:46:46.289Z,10.46
2019-03-21T08:49:18.406Z,10.68
2019-03-21T08:51:50.321Z,10.66
2019-03-21T08:54:22.597Z,10.55
2019-03-21T08:56:54.868Z,10.53
2019-03-21T08:59:26.722Z,10.45
2019-03-21T09:01:58.865Z,10.65
2019-03-21T09:04:30.897Z,10.54
2019-03-21T09:07:03.147Z,10.46
2019-03-21T09:09:35.437Z,10.47
2019-03-21T09:12:07.668Z,10.33
2019-03-21T09:14:39.483Z,10.32
2019-03-21T09:17:11.612Z,10.37
2019-03-21T09:19:43.653Z,10.59
2019-03-21T09:22:16.198Z,10.73
2019-03-21T09:24:48.242Z,10.80
2019-03-21T09:27:20.425Z,10.81
2019-03-21T09:29:53.769Z,10.79
2019-03-21T09:32:25.972Z,10.73
2019-03-21T09:34:58.105Z,10.84
2019-03-21T09:37:30.014Z,10.87
2019-03-21T09:40:03.174Z,10.87
2019-03-21T09:42:35.187Z,10.85
2019-03-21T09:45:08.253Z,10.85
2019-03-21T09:47:40.212Z,11.12
2019-03-21T09:50:14.652Z,11.27
2019-03-21T09:52:46.629Z,11.08
2019-03-21T09:55:18.721Z,11.25
2019-03-21T09:57:50.728Z,11.16
2019-03-21T10:00:34.161Z,11.00
2019-03-21T10:03:06.648Z,11.08
2019-03-21T10:05:38.716Z,11.15
2019-03-21T10:08:10.740Z,11.28
2019-03-21T10:10:42.577Z,11.12
2019-03-21T10:13:14.483Z,11.32
2019-03-21T10:15:46.460Z,11.29
2019-03-21T10:18:18.405Z,11.34
2019-03-21T10:20:50.265Z,11.43
2019-03-21T10:23:22.150Z,11.74
2019-03-21T10:25:55.879Z,11.59
2019-03-21T10:28:27.588Z,11.79
2019-03-21T10:30:59.338Z,12.47
2019-03-21T10:33:30.905Z,13.09
2019-03-21T10:36:02.517Z,13.33
2019-03-21T10:38:34.276Z,13.66
2019-03-21T10:41:06.029Z,13.36
2019-03-21T10:43:37.900Z,13.36
2019-03-21T10:46:09.473Z,13.57
2019-03-21T10:48:41.217Z,13.44
2019-03-21T10:51:12.913Z,13.32
2019-03-21T10:53:44.436Z,13.13
2019-03-21T10:56:16.346Z,13.19
2019-03-21T10:58:48.109Z,13.24
2019-03-21T11:01:19.888Z,12.88
2019-03-21T11:03:51.682Z,12.95
2019-03-21T11:06:23.426Z,12.95
2019-03-21T11:08:55.305Z,13.00
2019-03-21T11:11:27.252Z,12.98
2019-03-21T11:13:59.082Z,13.22
2019-03-21T11:16:31.574Z,13.26
2019-03-21T11:19:03.489Z,13.67
2019-03-21T11:21:36.138Z,13.82
2019-03-21T11:24:07.830Z,14.19
2019-03-21T11:26:39.646Z,14.45
2019-03-21T11:29:11.193Z,14.35
2019-03-21T11:31:42.830Z,14.34
2019-03-21T11:34:14.528Z,14.87
2019-03-21T11:36:45.963Z,15.30
2019-03-21T11:39:17.742Z,15.54
2019-03-21T11:41:49.404Z,15.72
2019-03-21T11:44:22.107Z,16.05
2019-03-21T11:46:53.663Z,16.20
2019-03-21T11:49:25.161Z,16.20
2019-03-21T11:51:56.912Z,15.14
2019-03-21T11:54:28.463Z,15.63
2019-03-21T11:56:59.956Z,15.92
2019-03-21T11:59:46.185Z,15.84
2019-03-21T12:02:05.024Z,16.36
2019-03-21T12:04:36.628Z,16.36
2019-03-21T12:07:08.524Z,16.24
2019-03-21T12:09:40.242Z,16.70
2019-03-21T12:12:11.919Z,16.53
2019-03-21T12:14:43.441Z,15.81
2019-03-21T12:17:15.013Z,15.37
2019-03-21T12:19:46.701Z,15.37
2019-03-21T12:22:29.146Z,15.20
2019-03-21T12:24:51.804Z,14.91
2019-03-21T12:27:23.866Z,14.94
2019-03-21T12:29:55.640Z,15.00
2019-03-21T12:32:27.598Z,15.27
2019-03-21T12:35:00.429Z,14.93
2019-03-21T12:37:32.170Z,14.65
2019-03-21T12:40:03.735Z,14.55
2019-03-21T12:42:36.555Z,14.76
2019-03-21T12:45:10.502Z,14.71
2019-03-21T12:47:42.230Z,14.89
2019-03-21T12:50:14.067Z,15.14
2019-03-21T12:52:45.893Z,15.28
2019-03-21T12:55:17.768Z,15.42
2019-03-21T12:57:49.679Z,15.57
2019-03-21T13:00:46.947Z,15.51
2019-03-21T13:03:18.557Z,15.51
2019-03-21T13:05:50.082Z,15.23
2019-03-21T13:08:33.080Z,15.04
2019-03-21T13:10:55.016Z,14.90
2019-03-21T13:13:26.631Z,15.22
2019-03-21T13:15:58.680Z,15.22
2019-03-21T13:18:30.710Z,15.36
2019-03-21T13:21:02.889Z,15.31
2019-03-21T13:23:34.790Z,14.96
2019-03-21T13:26:06.720Z,15.00
2019-03-21T13:28:38.251Z,15.01
2019-03-21T13:31:10.245Z,15.02
2019-03-21T13:33:42.340Z,14.85
2019-03-21T13:36:15.369Z,15.17
2019-03-21T13:38:47.126Z,15.21
2019-03-21T13:41:19.901Z,15.17
2019-03-21T13:43:51.717Z,15.37
2019-03-21T13:46:23.225Z,15.12
2019-03-21T13:48:54.813Z,15.12
2019-03-21T13:51:26.592Z,15.13
2019-03-21T13:53:58.045Z,14.96
2019-03-21T13:56:37.785Z,14.68
2019-03-21T13:59:02.923Z,14.67
2019-03-21T14:01:34.669Z,14.80
2019-03-21T14:04:06.363Z,14.87
2019-03-21T14:06:38.115Z,14.82
2019-03-21T14:09:10.088Z,14.88
2019-03-21T14:11:41.611Z,14.84
2019-03-21T14:14:13.073Z,14.76
2019-03-21T14:16:44.599Z,14.35
2019-03-21T14:19:16.176Z,14.42
2019-03-21T14:21:48.221Z,14.51
2019-03-21T14:24:20.163Z,14.47
2019-03-21T14:26:51.687Z,14.30
2019-03-21T14:29:23.311Z,14.09
2019-03-21T14:31:54.791Z,14.14
2019-03-21T14:34:26.459Z,14.08
2019-03-21T14:36:58.071Z,13.97
2019-03-21T14:39:30.236Z,13.79
2019-03-21T14:42:01.954Z,13.74
2019-03-21T14:44:33.872Z,13.68
2019-03-21T14:47:05.708Z,13.71
2019-03-21T14:49:37.652Z,13.68
2019-03-21T14:52:09.401Z,13.61
2019-03-21T14:54:41.213Z,13.54
2019-03-21T14:57:13.182Z,13.45
2019-03-21T14:59:45.051Z,13.50
2019-03-21T15:02:16.724Z,13.48
2019-03-21T15:04:48.310Z,13.38
2019-03-21T15:07:20.004Z,13.48
2019-03-21T15:09:51.720Z,13.40
2019-03-21T15:12:23.395Z,13.43
2019-03-21T15:14:54.962Z,13.41
2019-03-21T15:17:26.794Z,13.26
2019-03-21T15:19:58.601Z,13.17
2019-03-21T15:22:30.191Z,13.04
2019-03-21T15:25:01.642Z,13.05
2019-03-21T15:27:33.722Z,12.91
2019-03-21T15:30:06.438Z,12.96
2019-03-21T15:32:38.193Z,12.82
2019-03-21T15:35:11.198Z,12.72
2019-03-21T15:37:42.984Z,12.56
2019-03-21T15:40:15.471Z,12.51
2019-03-21T15:42:47.032Z,12.52
2019-03-21T15:45:23.607Z,12.39
2019-03-21T15:47:52.425Z,12.21
2019-03-21T15:50:32.026Z,12.38
2019-03-21T15:53:03.639Z,12.36
2019-03-21T15:55:35.412Z,12.33
2019-03-21T15:58:07.333Z,12.21
2019-03-21T16:00:40.653Z,12.17
2019-03-21T16:03:13.241Z,12.09
2019-03-21T16:05:45.047Z,12.09
2019-03-21T16:08:16.574Z,12.08
2019-03-21T16:10:48.493Z,12.05
2019-03-21T16:13:20.391Z,12.03
2019-03-21T16:15:52.198Z,12.01
2019-03-21T16:18:25.138Z,12.00
2019-03-21T16:20:57.231Z,11.92
2019-03-21T16:23:29.167Z,11.83
2019-03-21T16:26:00.948Z,11.84
2019-03-21T16:28:32.682Z,11.76
2019-03-21T16:31:04.542Z,11.72
2019-03-21T16:33:36.402Z,11.72
2019-03-21T16:36:08.313Z,11.64
2019-03-21T16:38:40.218Z,11.53
2019-03-21T16:41:11.966Z,11.53
2019-03-21T16:43:43.848Z,11.42
2019-03-21T16:46:15.659Z,11.46
2019-03-21T16:48:47.529Z,11.49
2019-03-21T16:51:19.161Z,11.44
2019-03-21T16:53:50.946Z,11.41
2019-03-21T16:56:23.049Z,11.37
2019-03-21T16:58:55.751Z,11.38
2019-03-21T17:01:27.988Z,11.37
2019-03-21T17:03:59.842Z,11.32
2019-03-21T17:06:31.773Z,11.34
2019-03-21T17:09:04.210Z,11.38
2019-03-21T17:11:36.514Z,11.15
2019-03-21T17:14:08.647Z,11.18
2019-03-21T17:16:40.666Z,11.27
2019-03-21T17:19:12.535Z,11.07
2019-03-21T17:21:44.569Z,11.06
2019-03-21T17:24:28.435Z,11.02
2019-03-21T17:26:50.339Z,11.14
2019-03-21T17:29:28.561Z,11.23
2019-03-21T17:32:03.036Z,11.35
2019-03-21T17:34:35.238Z,11.40
2019-03-21T17:37:07.202Z,11.33
2019-03-21T17:39:39.124Z,11.27
2019-03-21T17:42:10.987Z,11.33
2019-03-21T17:44:43.002Z,11.16
2019-03-21T17:47:14.864Z,11.13
2019-03-21T17:49:46.879Z,11.11
2019-03-21T17:52:19.134Z,11.04
2019-03-21T17:54:51.228Z,11.00
2019-03-21T17:57:34.056Z,10.71
2019-03-21T17:59:56.877Z,10.57
2019-03-21T18:02:28.824Z,10.59
2019-03-21T18:05:01.114Z,10.68
2019-03-21T18:07:32.850Z,10.65
2019-03-21T18:10:05.463Z,10.73
2019-03-21T18:12:37.691Z,10.87
2019-03-21T18:15:09.978Z,11.00
2019-03-21T18:17:41.815Z,10.86
2019-03-21T18:20:13.914Z,10.86
2019-03-21T18:22:45.970Z,10.78
2019-03-21T18:25:18.055Z,10.85
2019-03-21T18:27:50.453Z,10.77
2019-03-21T18:30:22.557Z,10.69
2019-03-21T18:32:54.740Z,10.69
2019-03-21T18:35:27.001Z,10.78
2019-03-21T18:38:00.169Z,10.63
2019-03-21T18:40:32.178Z,10.68
2019-03-21T18:43:04.465Z,10.76
2019-03-21T18:45:36.486Z,10.81
2019-03-21T18:48:08.576Z,10.82
2019-03-21T18:50:40.373Z,10.81
2019-03-21T18:53:12.298Z,10.91
2019-03-21T18:55:44.285Z,10.87
2019-03-21T18:58:16.703Z,10.99
2019-03-21T19:00:48.556Z,11.04
2019-03-21T19:03:20.406Z,11.06
2019-03-21T19:05:52.327Z,11.14
2019-03-21T19:08:24.384Z,11.09
2019-03-21T19:10:56.398Z,11.05
2019-03-21T19:13:28.309Z,10.98
2019-03-21T19:16:00.209Z,10.80
2019-03-21T19:18:32.959Z,10.83
2019-03-21T19:21:04.897Z,10.73
2019-03-21T19:23:36.764Z,10.67
2019-03-21T19:26:08.804Z,10.65
2019-03-21T19:28:40.871Z,10.64
2019-03-21T19:31:13.058Z,10.64
2019-03-21T19:33:45.230Z,10.55
2019-03-21T19:36:17.269Z,10.48
2019-03-21T19:38:49.167Z,10.38
2019-03-21T19:41:21.376Z,10.40
2019-03-21T19:43:53.659Z,10.35
2019-03-21T19:46:25.467Z,10.29
2019-03-21T19:48:57.549Z,10.31
2019-03-21T19:51:29.597Z,10.38
2019-03-21T19:54:01.464Z,10.12
2019-03-21T19:56:33.637Z,10.19
2019-03-21T19:59:05.709Z,10.08
2019-03-21T20:01:37.790Z,10.02
2019-03-21T20:04:09.881Z,10.00
2019-03-21T20:06:41.718Z,9.97
2019-03-21T20:09:13.618Z,9.90
2019-03-21T20:11:45.610Z,9.89
2019-03-21T20:14:17.511Z,9.85
2019-03-21T20:16:49.389Z,9.95
2019-03-21T20:19:21.455Z,9.94
2019-03-21T20:21:53.361Z,10.07
2019-03-21T20:24:25.488Z,10.10
2019-03-21T20:26:57.456Z,10.11
2019-03-21T20:29:29.258Z,9.94
2019-03-21T20:32:01.068Z,10.02
2019-03-21T20:34:33.148Z,10.08
2019-03-21T20:37:05.332Z,10.02
2019-03-21T20:39:37.371Z,10.14
2019-03-21T20:42:09.526Z,9.95
2019-03-21T20:44:41.658Z,9.97
2019-03-21T20:47:13.626Z,9.92
2019-03-21T20:49:45.730Z,9.92
2019-03-21T20:52:17.682Z,9.89
2019-03-21T20:54:53.315Z,9.95
2019-03-21T20:57:25.638Z,9.83
2019-03-21T20:59:57.763Z,9.81
2019-03-21T21:02:29.676Z,9.75
2019-03-21T21:05:01.679Z,9.63
2019-03-21T21:07:33.905Z,9.65
2019-03-21T21:10:07.656Z,9.60
2019-03-21T21:12:39.892Z,9.62
2019-03-21T21:15:12.338Z,9.52
2019-03-21T21:17:44.449Z,9.47
2019-03-21T21:20:16.641Z,9.55
2019-03-21T21:22:48.639Z,9.57
2019-03-21T21:25:20.629Z,9.47
2019-03-21T21:27:52.963Z,9.52
2019-03-21T21:30:25.155Z,9.40
2019-03-21T21:32:57.294Z,9.41
2019-03-21T21:35:29.273Z,9.37
2019-03-21T21:38:01.131Z,9.43
2019-03-21T21:40:34.549Z,9.40
2019-03-21T21:43:06.564Z,9.38
2019-03-21T21:45:39.538Z,9.44
2019-03-21T21:48:11.512Z,9.45
2019-03-21T21:50:43.564Z,9.47
2019-03-21T21:53:15.322Z,9.38
2019-03-21T21:55:47.281Z,9.35
2019-03-21T21:58:19.098Z,9.34
2019-03-21T22:00:51.080Z,9.25
2019-03-21T22:03:23.307Z,9.15
2019-03-21T22:05:55.605Z,9.17
2019-03-21T22:08:27.939Z,9.08
2019-03-21T22:11:00.103Z,9.01
2019-03-21T22:13:32.236Z,8.99
2019-03-21T22:16:04.152Z,8.89
2019-03-21T22:18:36.195Z,8.70
2019-03-21T22:21:08.213Z,8.62
2019-03-21T22:23:40.400Z,8.59
2019-03-21T22:26:12.536Z,8.55
2019-03-21T22:28:44.639Z,8.51
2019-03-21T22:31:16.976Z,8.52
2019-03-21T22:33:48.926Z,8.43
2019-03-21T22:36:21.129Z,8.32
2019-03-21T22:38:53.003Z,8.18
2019-03-21T22:41:24.939Z,8.16
2019-03-21T22:43:56.852Z,8.09
2019-03-21T22:46:28.884Z,8.03
2019-03-21T22:49:00.670Z,7.98
2019-03-21T22:51:32.748Z,7.99
2019-03-21T22:54:04.603Z,7.91
2019-03-21T22:56:41.142Z,7.89
2019-03-21T22:59:10.207Z,7.82
2019-03-21T23:01:42.372Z,7.69
2019-03-21T23:04:14.324Z,7.69
2019-03-21T23:06:46.459Z,7.60
2019-03-21T23:09:18.226Z,7.54
2019-03-21T23:11:50.187Z,7.49
2019-03-21T23:14:22.191Z,7.30
2019-03-21T23:16:54.435Z,7.26
2019-03-21T23:19:26.396Z,7.31
2019-03-21T23:21:58.859Z,7.32
2019-03-21T23:24:32.250Z,7.38
2019-03-21T23:27:04.678Z,7.47
2019-03-21T23:29:36.802Z,7.48
2019-03-21T23:32:08.747Z,7.39
2019-03-21T23:34:40.759Z,7.40
2019-03-21T23:37:12.789Z,7.38
2019-03-21T23:39:44.814Z,7.25
2019-03-21T23:42:17.077Z,7.15
2019-03-21T23:44:49.297Z,7.11
2019-03-21T23:47:21.484Z,7.11
2019-03-21T23:49:53.550Z,7.06
2019-03-21T23:52:25.729Z,7.06
2019-03-21T23:54:57.862Z,6.89
2019-03-21T23:57:30.122Z,6.71
